sensor_id;sensor_type;location;lat;lon;timestamp;P1;durP1;ratioP1;P2;durP2;ratioP2
33268;SDS011;19640;50.944;5.260;2024-03-23T00:52:12;10.95;;;3.08;;
33268;SDS011;19640;50.944;5.260;2024-03-23T00:54:38;8.15;;;2.22;;
33268;SDS011;19640;50.944;5.260;2024-03-23T00:57:03;8.25;;;2.03;;
33268;SDS011;19640;50.944;5.260;2024-03-23T00:59:29;9.35;;;2.30;;
33268;SDS011;19640;50.944;5.260;2024-03-23T01:01:56;8.43;;;2.00;;
33268;SDS011;19640;50.944;5.260;2024-03-23T01:04:21;7.93;;;2.25;;
33268;SDS011;19640;50.944;5.260;2024-03-23T01:06:47;13.55;;;2.03;;
33268;SDS011;19640;50.944;5.260;2024-03-23T01:09:13;9.20;;;1.98;;
33268;SDS011;19640;50.944;5.260;2024-03-23T01:11:39;7.97;;;2.53;;
33268;SDS011;19640;50.944;5.260;2024-03-23T01:14:05;7.30;;;1.70;;
33268;SDS011;19640;50.944;5.260;2024-03-23T01:16:31;7.53;;;2.33;;
33268;SDS011;19640;50.944;5.260;2024-03-23T01:18:57;5.45;;;1.75;;
33268;SDS011;19640;50.944;5.260;2024-03-23T01:21:22;8.73;;;2.10;;
33268;SDS011;19640;50.944;5.260;2024-03-23T01:23:48;7.35;;;1.98;;
33268;SDS011;19640;50.944;5.260;2024-03-23T01:26:14;7.50;;;1.88;;
33268;SDS011;19640;50.944;5.260;2024-03-23T01:28:40;5.53;;;1.45;;
33268;SDS011;19640;50.944;5.260;2024-03-23T01:31:06;10.60;;;2.10;;
33268;SDS011;19640;50.944;5.260;2024-03-23T01:33:31;8.55;;;1.90;;
33268;SDS011;19640;50.944;5.260;2024-03-23T01:35:57;8.88;;;2.35;;
33268;SDS011;19640;50.944;5.260;2024-03-23T01:38:23;11.35;;;2.10;;
33268;SDS011;19640;50.944;5.260;2024-03-23T01:40:48;7.85;;;2.35;;
33268;SDS011;19640;50.944;5.260;2024-03-23T01:43:14;13.40;;;2.95;;
33268;SDS011;19640;50.944;5.260;2024-03-23T01:45:40;9.55;;;1.95;;
33268;SDS011;19640;50.944;5.260;2024-03-23T01:48:06;6.03;;;2.50;;
33268;SDS011;19640;50.944;5.260;2024-03-23T01:50:32;10.27;;;2.90;;
33268;SDS011;19640;50.944;5.260;2024-03-23T01:53:03;14.15;;;4.15;;
33268;SDS011;19640;50.944;5.260;2024-03-23T01:55:32;9.35;;;3.13;;
33268;SDS011;19640;50.944;5.260;2024-03-23T01:57:58;8.55;;;3.20;;
33268;SDS011;19640;50.944;5.260;2024-03-23T02:00:23;8.32;;;3.05;;
33268;SDS011;19640;50.944;5.260;2024-03-23T02:02:49;9.45;;;3.20;;
33268;SDS011;19640;50.944;5.260;2024-03-23T02:05:15;13.27;;;3.05;;
33268;SDS011;19640;50.944;5.260;2024-03-23T02:07:41;13.05;;;3.67;;
33268;SDS011;19640;50.944;5.260;2024-03-23T02:10:08;11.95;;;2.35;;
33268;SDS011;19640;50.944;5.260;2024-03-23T02:12:35;12.52;;;2.53;;
33268;SDS011;19640;50.944;5.260;2024-03-23T02:15:01;7.85;;;2.72;;
33268;SDS011;19640;50.944;5.260;2024-03-23T02:17:28;10.20;;;2.60;;
33268;SDS011;19640;50.944;5.260;2024-03-23T02:19:55;12.55;;;2.75;;
33268;SDS011;19640;50.944;5.260;2024-03-23T02:22:21;23.42;;;3.10;;
33268;SDS011;19640;50.944;5.260;2024-03-23T02:24:46;10.63;;;2.83;;
33268;SDS011;19640;50.944;5.260;2024-03-23T02:27:12;18.33;;;3.60;;
33268;SDS011;19640;50.944;5.260;2024-03-23T02:29:38;15.27;;;3.95;;
33268;SDS011;19640;50.944;5.260;2024-03-23T02:32:04;10.75;;;3.03;;
33268;SDS011;19640;50.944;5.260;2024-03-23T02:34:30;9.00;;;3.30;;
33268;SDS011;19640;50.944;5.260;2024-03-23T02:36:55;12.35;;;3.47;;
33268;SDS011;19640;50.944;5.260;2024-03-23T02:39:21;11.00;;;2.88;;
33268;SDS011;19640;50.944;5.260;2024-03-23T02:41:47;13.13;;;3.30;;
33268;SDS011;19640;50.944;5.260;2024-03-23T02:44:13;12.10;;;2.85;;
33268;SDS011;19640;50.944;5.260;2024-03-23T02:46:39;11.55;;;3.05;;
33268;SDS011;19640;50.944;5.260;2024-03-23T02:49:05;9.75;;;3.28;;
33268;SDS011;19640;50.944;5.260;2024-03-23T02:51:31;10.35;;;2.70;;
33268;SDS011;19640;50.944;5.260;2024-03-23T02:53:57;12.48;;;3.08;;
33268;SDS011;19640;50.944;5.260;2024-03-23T02:56:22;7.88;;;2.78;;
33268;SDS011;19640;50.944;5.260;2024-03-23T02:58:48;14.55;;;2.50;;
33268;SDS011;19640;50.944;5.260;2024-03-23T03:01:14;8.40;;;2.70;;
33268;SDS011;19640;50.944;5.260;2024-03-23T03:03:40;11.20;;;3.15;;
33268;SDS011;19640;50.944;5.260;2024-03-23T03:06:05;11.55;;;3.25;;
33268;SDS011;19640;50.944;5.260;2024-03-23T03:08:31;12.93;;;3.53;;
33268;SDS011;19640;50.944;5.260;2024-03-23T03:10:57;13.18;;;3.25;;
33268;SDS011;19640;50.944;5.260;2024-03-23T03:13:22;13.07;;;3.20;;
33268;SDS011;19640;50.944;5.260;2024-03-23T03:15:48;8.05;;;2.70;;
33268;SDS011;19640;50.944;5.260;2024-03-23T03:18:14;11.25;;;2.63;;
33268;SDS011;19640;50.944;5.260;2024-03-23T03:20:39;8.98;;;2.53;;
33268;SDS011;19640;50.944;5.260;2024-03-23T03:23:06;11.93;;;2.80;;
33268;SDS011;19640;50.944;5.260;2024-03-23T03:25:32;15.38;;;2.92;;
33268;SDS011;19640;50.944;5.260;2024-03-23T03:27:58;15.27;;;2.38;;
33268;SDS011;19640;50.944;5.260;2024-03-23T03:30:24;10.10;;;2.85;;
33268;SDS011;19640;50.944;5.260;2024-03-23T03:32:51;11.32;;;2.55;;
33268;SDS011;19640;50.944;5.260;2024-03-23T03:35:20;7.43;;;2.50;;
33268;SDS011;19640;50.944;5.260;2024-03-23T03:37:45;11.13;;;2.55;;
33268;SDS011;19640;50.944;5.260;2024-03-23T03:40:11;13.43;;;2.63;;
33268;SDS011;19640;50.944;5.260;2024-03-23T03:42:39;6.13;;;1.98;;
33268;SDS011;19640;50.944;5.260;2024-03-23T03:45:06;15.80;;;2.78;;
33268;SDS011;19640;50.944;5.260;2024-03-23T03:47:32;12.82;;;2.38;;
33268;SDS011;19640;50.944;5.260;2024-03-23T03:49:58;7.70;;;2.47;;
33268;SDS011;19640;50.944;5.260;2024-03-23T03:52:23;12.90;;;2.03;;
33268;SDS011;19640;50.944;5.260;2024-03-23T03:54:49;7.38;;;2.17;;
33268;SDS011;19640;50.944;5.260;2024-03-23T03:57:14;10.68;;;2.05;;
33268;SDS011;19640;50.944;5.260;2024-03-23T03:59:40;8.45;;;2.05;;
33268;SDS011;19640;50.944;5.260;2024-03-23T04:02:06;7.93;;;2.25;;
33268;SDS011;19640;50.944;5.260;2024-03-23T04:04:31;8.90;;;2.17;;
33268;SDS011;19640;50.944;5.260;2024-03-23T04:07:00;8.23;;;2.35;;
33268;SDS011;19640;50.944;5.260;2024-03-23T04:09:26;11.82;;;2.33;;
33268;SDS011;19640;50.944;5.260;2024-03-23T04:11:52;9.05;;;2.35;;
33268;SDS011;19640;50.944;5.260;2024-03-23T04:14:18;15.63;;;3.08;;
33268;SDS011;19640;50.944;5.260;2024-03-23T04:16:43;7.20;;;2.28;;
33268;SDS011;19640;50.944;5.260;2024-03-23T04:19:09;7.03;;;2.30;;
33268;SDS011;19640;50.944;5.260;2024-03-23T04:21:35;6.50;;;2.30;;
33268;SDS011;19640;50.944;5.260;2024-03-23T04:24:02;7.68;;;2.45;;
33268;SDS011;19640;50.944;5.260;2024-03-23T04:26:29;9.23;;;2.78;;
33268;SDS011;19640;50.944;5.260;2024-03-23T04:28:54;12.18;;;2.83;;
33268;SDS011;19640;50.944;5.260;2024-03-23T04:31:20;12.02;;;2.60;;
33268;SDS011;19640;50.944;5.260;2024-03-23T04:33:47;10.07;;;2.67;;
33268;SDS011;19640;50.944;5.260;2024-03-23T04:36:12;7.15;;;2.95;;
33268;SDS011;19640;50.944;5.260;2024-03-23T04:38:38;10.52;;;3.00;;
33268;SDS011;19640;50.944;5.260;2024-03-23T04:41:04;10.35;;;3.65;;
33268;SDS011;19640;50.944;5.260;2024-03-23T04:43:29;6.72;;;3.35;;
33268;SDS011;19640;50.944;5.260;2024-03-23T04:45:55;6.25;;;3.05;;
33268;SDS011;19640;50.944;5.260;2024-03-23T04:48:21;9.02;;;2.65;;
33268;SDS011;19640;50.944;5.260;2024-03-23T04:50:48;11.35;;;3.13;;
33268;SDS011;19640;50.944;5.260;2024-03-23T04:53:14;6.55;;;2.72;;
33268;SDS011;19640;50.944;5.260;2024-03-23T04:55:41;9.15;;;2.60;;
33268;SDS011;19640;50.944;5.260;2024-03-23T04:58:07;6.88;;;2.58;;
33268;SDS011;19640;50.944;5.260;2024-03-23T05:00:33;9.35;;;4.07;;
33268;SDS011;19640;50.944;5.260;2024-03-23T05:02:59;8.98;;;3.20;;
33268;SDS011;19640;50.944;5.260;2024-03-23T05:05:24;12.75;;;3.35;;
33268;SDS011;19640;50.944;5.260;2024-03-23T05:07:50;9.45;;;3.38;;
33268;SDS011;19640;50.944;5.260;2024-03-23T05:10:16;17.15;;;5.57;;
33268;SDS011;19640;50.944;5.260;2024-03-23T05:12:41;9.40;;;5.07;;
33268;SDS011;19640;50.944;5.260;2024-03-23T05:15:07;12.80;;;4.80;;
33268;SDS011;19640;50.944;5.260;2024-03-23T05:17:33;12.52;;;4.55;;
33268;SDS011;19640;50.944;5.260;2024-03-23T05:19:59;23.25;;;5.40;;
33268;SDS011;19640;50.944;5.260;2024-03-23T05:22:25;12.18;;;4.85;;
33268;SDS011;19640;50.944;5.260;2024-03-23T05:24:52;18.55;;;5.53;;
33268;SDS011;19640;50.944;5.260;2024-03-23T05:27:18;14.75;;;5.35;;
33268;SDS011;19640;50.944;5.260;2024-03-23T05:29:44;11.07;;;4.80;;
33268;SDS011;19640;50.944;5.260;2024-03-23T05:32:09;13.70;;;6.65;;
33268;SDS011;19640;50.944;5.260;2024-03-23T05:34:35;20.63;;;6.70;;
33268;SDS011;19640;50.944;5.260;2024-03-23T05:37:01;20.73;;;6.78;;
33268;SDS011;19640;50.944;5.260;2024-03-23T05:39:26;11.77;;;5.28;;
33268;SDS011;19640;50.944;5.260;2024-03-23T05:41:52;19.27;;;6.88;;
33268;SDS011;19640;50.944;5.260;2024-03-23T05:44:18;18.33;;;6.93;;
33268;SDS011;19640;50.944;5.260;2024-03-23T05:46:43;22.00;;;7.18;;
33268;SDS011;19640;50.944;5.260;2024-03-23T05:49:13;25.13;;;7.00;;
33268;SDS011;19640;50.944;5.260;2024-03-23T05:51:40;14.65;;;7.40;;
33268;SDS011;19640;50.944;5.260;2024-03-23T05:54:06;16.63;;;7.25;;
33268;SDS011;19640;50.944;5.260;2024-03-23T05:56:32;14.88;;;7.25;;
33268;SDS011;19640;50.944;5.260;2024-03-23T05:58:57;18.23;;;7.50;;
33268;SDS011;19640;50.944;5.260;2024-03-23T06:01:23;19.45;;;7.05;;
33268;SDS011;19640;50.944;5.260;2024-03-23T06:03:49;25.75;;;7.72;;
33268;SDS011;19640;50.944;5.260;2024-03-23T06:06:15;14.35;;;7.07;;
33268;SDS011;19640;50.944;5.260;2024-03-23T06:08:41;20.80;;;7.07;;
33268;SDS011;19640;50.944;5.260;2024-03-23T06:11:06;20.73;;;6.93;;
33268;SDS011;19640;50.944;5.260;2024-03-23T06:13:32;20.27;;;7.43;;
33268;SDS011;19640;50.944;5.260;2024-03-23T06:15:59;19.00;;;7.20;;
33268;SDS011;19640;50.944;5.260;2024-03-23T06:18:25;17.67;;;6.85;;
33268;SDS011;19640;50.944;5.260;2024-03-23T06:20:51;18.52;;;7.15;;
33268;SDS011;19640;50.944;5.260;2024-03-23T06:23:17;29.42;;;7.65;;
33268;SDS011;19640;50.944;5.260;2024-03-23T06:25:45;25.50;;;6.85;;
33268;SDS011;19640;50.944;5.260;2024-03-23T06:28:11;22.20;;;7.10;;
33268;SDS011;19640;50.944;5.260;2024-03-23T06:30:36;22.73;;;6.25;;
33268;SDS011;19640;50.944;5.260;2024-03-23T06:33:02;11.95;;;6.10;;
33268;SDS011;19640;50.944;5.260;2024-03-23T06:35:28;23.67;;;6.05;;
33268;SDS011;19640;50.944;5.260;2024-03-23T06:37:54;20.83;;;7.22;;
33268;SDS011;19640;50.944;5.260;2024-03-23T06:40:19;21.55;;;6.65;;
33268;SDS011;19640;50.944;5.260;2024-03-23T06:42:45;23.23;;;8.20;;
33268;SDS011;19640;50.944;5.260;2024-03-23T06:45:11;20.10;;;8.32;;
33268;SDS011;19640;50.944;5.260;2024-03-23T06:47:36;25.33;;;9.30;;
33268;SDS011;19640;50.944;5.260;2024-03-23T06:50:02;15.60;;;8.90;;
33268;SDS011;19640;50.944;5.260;2024-03-23T06:52:29;26.48;;;8.88;;
33268;SDS011;19640;50.944;5.260;2024-03-23T06:54:55;25.52;;;8.50;;
33268;SDS011;19640;50.944;5.260;2024-03-23T06:57:22;21.08;;;8.60;;
33268;SDS011;19640;50.944;5.260;2024-03-23T06:59:47;13.32;;;7.20;;
33268;SDS011;19640;50.944;5.260;2024-03-23T07:02:13;16.90;;;6.75;;
33268;SDS011;19640;50.944;5.260;2024-03-23T07:04:39;16.27;;;6.50;;
33268;SDS011;19640;50.944;5.260;2024-03-23T07:07:05;21.70;;;6.03;;
33268;SDS011;19640;50.944;5.260;2024-03-23T07:09:31;16.92;;;6.07;;
33268;SDS011;19640;50.944;5.260;2024-03-23T07:11:57;19.20;;;6.00;;
33268;SDS011;19640;50.944;5.260;2024-03-23T07:14:23;16.85;;;6.63;;
33268;SDS011;19640;50.944;5.260;2024-03-23T07:16:49;21.98;;;7.20;;
33268;SDS011;19640;50.944;5.260;2024-03-23T07:19:15;19.27;;;6.93;;
33268;SDS011;19640;50.944;5.260;2024-03-23T07:21:42;13.15;;;6.63;;
33268;SDS011;19640;50.944;5.260;2024-03-23T07:24:08;19.88;;;7.78;;
33268;SDS011;19640;50.944;5.260;2024-03-23T07:26:34;19.90;;;5.80;;
33268;SDS011;19640;50.944;5.260;2024-03-23T07:29:00;13.50;;;5.57;;
33268;SDS011;19640;50.944;5.260;2024-03-23T07:31:26;17.05;;;5.30;;
33268;SDS011;19640;50.944;5.260;2024-03-23T07:33:51;11.77;;;5.63;;
33268;SDS011;19640;50.944;5.260;2024-03-23T07:36:17;11.65;;;4.95;;
33268;SDS011;19640;50.944;5.260;2024-03-23T07:38:43;8.82;;;4.25;;
33268;SDS011;19640;50.944;5.260;2024-03-23T07:41:14;14.88;;;4.72;;
33268;SDS011;19640;50.944;5.260;2024-03-23T07:43:42;11.88;;;4.43;;
33268;SDS011;19640;50.944;5.260;2024-03-23T07:46:08;13.65;;;4.57;;
33268;SDS011;19640;50.944;5.260;2024-03-23T07:48:34;9.10;;;3.75;;
33268;SDS011;19640;50.944;5.260;2024-03-23T07:53:29;15.02;;;3.10;;
33268;SDS011;19640;50.944;5.260;2024-03-23T07:55:56;15.13;;;4.00;;
33268;SDS011;19640;50.944;5.260;2024-03-23T07:58:24;15.65;;;2.42;;
33268;SDS011;19640;50.944;5.260;2024-03-23T08:00:51;10.20;;;2.67;;
33268;SDS011;19640;50.944;5.260;2024-03-23T08:03:21;7.22;;;1.98;;
33268;SDS011;19640;50.944;5.260;2024-03-23T08:05:47;9.88;;;2.75;;
33268;SDS011;19640;50.944;5.260;2024-03-23T08:08:12;8.57;;;2.00;;
33268;SDS011;19640;50.944;5.260;2024-03-23T08:10:51;7.95;;;1.70;;
33268;SDS011;19640;50.944;5.260;2024-03-23T08:13:18;11.00;;;2.38;;
33268;SDS011;19640;50.944;5.260;2024-03-23T08:15:44;9.23;;;2.08;;
33268;SDS011;19640;50.944;5.260;2024-03-23T08:18:12;8.73;;;1.80;;
33268;SDS011;19640;50.944;5.260;2024-03-23T08:20:40;7.57;;;1.52;;
33268;SDS011;19640;50.944;5.260;2024-03-23T08:23:06;4.82;;;1.50;;
33268;SDS011;19640;50.944;5.260;2024-03-23T08:25:33;9.85;;;1.77;;
33268;SDS011;19640;50.944;5.260;2024-03-23T08:27:59;9.05;;;1.98;;
33268;SDS011;19640;50.944;5.260;2024-03-23T08:30:25;9.20;;;1.98;;
33268;SDS011;19640;50.944;5.260;2024-03-23T08:32:53;7.57;;;1.90;;
33268;SDS011;19640;50.944;5.260;2024-03-23T08:35:19;8.98;;;2.03;;
33268;SDS011;19640;50.944;5.260;2024-03-23T08:37:45;9.27;;;2.70;;
33268;SDS011;19640;50.944;5.260;2024-03-23T08:40:11;7.47;;;1.95;;
33268;SDS011;19640;50.944;5.260;2024-03-23T08:42:37;11.35;;;2.20;;
33268;SDS011;19640;50.944;5.260;2024-03-23T08:45:03;11.40;;;1.98;;
33268;SDS011;19640;50.944;5.260;2024-03-23T08:47:29;6.40;;;2.13;;
33268;SDS011;19640;50.944;5.260;2024-03-23T08:49:55;8.00;;;1.90;;
33268;SDS011;19640;50.944;5.260;2024-03-23T08:52:22;8.55;;;1.85;;
33268;SDS011;19640;50.944;5.260;2024-03-23T08:54:48;7.05;;;1.98;;
33268;SDS011;19640;50.944;5.260;2024-03-23T08:57:14;8.48;;;2.50;;
33268;SDS011;19640;50.944;5.260;2024-03-23T08:59:39;7.20;;;2.05;;
33268;SDS011;19640;50.944;5.260;2024-03-23T09:02:05;14.15;;;1.75;;
33268;SDS011;19640;50.944;5.260;2024-03-23T09:04:30;9.63;;;1.95;;
33268;SDS011;19640;50.944;5.260;2024-03-23T09:06:56;9.02;;;1.73;;
33268;SDS011;19640;50.944;5.260;2024-03-23T09:09:24;5.63;;;1.85;;
33268;SDS011;19640;50.944;5.260;2024-03-23T09:11:49;5.93;;;1.52;;
33268;SDS011;19640;50.944;5.260;2024-03-23T09:14:15;7.13;;;1.70;;
33268;SDS011;19640;50.944;5.260;2024-03-23T09:16:40;10.07;;;1.95;;
33268;SDS011;19640;50.944;5.260;2024-03-23T09:19:06;9.82;;;1.98;;
33268;SDS011;19640;50.944;5.260;2024-03-23T09:21:32;8.70;;;1.95;;
33268;SDS011;19640;50.944;5.260;2024-03-23T09:23:58;12.60;;;2.33;;
33268;SDS011;19640;50.944;5.260;2024-03-23T09:26:23;6.45;;;1.98;;
33268;SDS011;19640;50.944;5.260;2024-03-23T09:28:49;9.10;;;1.92;;
33268;SDS011;19640;50.944;5.260;2024-03-23T09:31:15;7.38;;;1.80;;
33268;SDS011;19640;50.944;5.260;2024-03-23T09:33:41;9.35;;;1.83;;
33268;SDS011;19640;50.944;5.260;2024-03-23T09:36:07;8.70;;;1.70;;
33268;SDS011;19640;50.944;5.260;2024-03-23T09:38:33;10.43;;;1.55;;
33268;SDS011;19640;50.944;5.260;2024-03-23T09:40:59;7.78;;;2.47;;
33268;SDS011;19640;50.944;5.260;2024-03-23T09:43:25;4.97;;;1.55;;
33268;SDS011;19640;50.944;5.260;2024-03-23T09:45:51;7.20;;;1.45;;
33268;SDS011;19640;50.944;5.260;2024-03-23T09:48:18;7.15;;;1.73;;
33268;SDS011;19640;50.944;5.260;2024-03-23T09:50:44;7.53;;;1.67;;
33268;SDS011;19640;50.944;5.260;2024-03-23T09:53:11;7.82;;;1.65;;
33268;SDS011;19640;50.944;5.260;2024-03-23T09:55:38;8.93;;;1.83;;
33268;SDS011;19640;50.944;5.260;2024-03-23T09:58:05;4.72;;;1.60;;
33268;SDS011;19640;50.944;5.260;2024-03-23T10:00:32;7.65;;;1.50;;
33268;SDS011;19640;50.944;5.260;2024-03-23T10:02:58;10.55;;;2.50;;
33268;SDS011;19640;50.944;5.260;2024-03-23T10:05:27;2.78;;;1.40;;
33268;SDS011;19640;50.944;5.260;2024-03-23T10:10:58;6.97;;;1.98;;
33268;SDS011;19640;50.944;5.260;2024-03-23T10:13:37;5.88;;;2.00;;
33268;SDS011;19640;50.944;5.260;2024-03-23T10:16:11;10.52;;;1.70;;
33268;SDS011;19640;50.944;5.260;2024-03-23T10:18:38;7.03;;;1.58;;
33268;SDS011;19640;50.944;5.260;2024-03-23T10:23:36;5.65;;;1.35;;
33268;SDS011;19640;50.944;5.260;2024-03-23T10:31:25;5.82;;;1.27;;
33268;SDS011;19640;50.944;5.260;2024-03-23T10:33:51;10.05;;;1.30;;
33268;SDS011;19640;50.944;5.260;2024-03-23T10:36:20;6.32;;;1.25;;
33268;SDS011;19640;50.944;5.260;2024-03-23T10:38:46;4.75;;;1.17;;
33268;SDS011;19640;50.944;5.260;2024-03-23T10:41:14;6.78;;;1.42;;
33268;SDS011;19640;50.944;5.260;2024-03-23T10:43:40;4.50;;;1.38;;
33268;SDS011;19640;50.944;5.260;2024-03-23T10:46:07;9.70;;;2.63;;
33268;SDS011;19640;50.944;5.260;2024-03-23T10:48:34;3.83;;;0.88;;
33268;SDS011;19640;50.944;5.260;2024-03-23T10:51:00;2.30;;;0.80;;
33268;SDS011;19640;50.944;5.260;2024-03-23T10:53:27;1.65;;;0.70;;
33268;SDS011;19640;50.944;5.260;2024-03-23T10:55:53;2.25;;;0.70;;
33268;SDS011;19640;50.944;5.260;2024-03-23T10:59:05;4.05;;;1.08;;
33268;SDS011;19640;50.944;5.260;2024-03-23T11:01:13;3.03;;;1.30;;
33268;SDS011;19640;50.944;5.260;2024-03-23T11:03:40;2.25;;;0.90;;
33268;SDS011;19640;50.944;5.260;2024-03-23T11:06:10;4.65;;;1.23;;
33268;SDS011;19640;50.944;5.260;2024-03-23T11:08:56;6.85;;;1.40;;
33268;SDS011;19640;50.944;5.260;2024-03-23T11:11:21;4.55;;;1.38;;
33268;SDS011;19640;50.944;5.260;2024-03-23T11:13:50;3.75;;;1.60;;
33268;SDS011;19640;50.944;5.260;2024-03-23T11:18:49;3.88;;;1.45;;
33268;SDS011;19640;50.944;5.260;2024-03-23T11:24:16;2.22;;;1.00;;
33268;SDS011;19640;50.944;5.260;2024-03-23T11:26:43;3.33;;;1.25;;
33268;SDS011;19640;50.944;5.260;2024-03-23T11:29:09;2.38;;;1.00;;
33268;SDS011;19640;50.944;5.260;2024-03-23T11:31:49;3.33;;;0.82;;
33268;SDS011;19640;50.944;5.260;2024-03-23T11:34:19;8.00;;;1.13;;
33268;SDS011;19640;50.944;5.260;2024-03-23T11:36:46;3.65;;;1.38;;
33268;SDS011;19640;50.944;5.260;2024-03-23T11:39:13;3.38;;;1.08;;
33268;SDS011;19640;50.944;5.260;2024-03-23T11:41:51;2.55;;;1.10;;
33268;SDS011;19640;50.944;5.260;2024-03-23T11:44:18;5.97;;;1.50;;
33268;SDS011;19640;50.944;5.260;2024-03-23T11:46:48;8.25;;;1.58;;
33268;SDS011;19640;50.944;5.260;2024-03-23T11:49:25;4.25;;;1.63;;
33268;SDS011;19640;50.944;5.260;2024-03-23T11:51:55;3.05;;;0.90;;
33268;SDS011;19640;50.944;5.260;2024-03-23T11:54:22;3.00;;;0.85;;
33268;SDS011;19640;50.944;5.260;2024-03-23T11:57:02;2.05;;;0.85;;
33268;SDS011;19640;50.944;5.260;2024-03-23T11:59:37;0.40;;;0.40;;
33268;SDS011;19640;50.944;5.260;2024-03-23T12:02:07;0.87;;;0.50;;
33268;SDS011;19640;50.944;5.260;2024-03-23T12:04:36;0.65;;;0.57;;
33268;SDS011;19640;50.944;5.260;2024-03-23T12:09:45;1.67;;;0.70;;
33268;SDS011;19640;50.944;5.260;2024-03-23T12:12:34;0.60;;;0.45;;
33268;SDS011;19640;50.944;5.260;2024-03-23T12:17:28;2.63;;;1.10;;
33268;SDS011;19640;50.944;5.260;2024-03-23T12:19:54;5.43;;;1.20;;
33268;SDS011;19640;50.944;5.260;2024-03-23T12:22:23;2.05;;;1.13;;
33268;SDS011;19640;50.944;5.260;2024-03-23T12:24:49;3.33;;;1.60;;
33268;SDS011;19640;50.944;5.260;2024-03-23T12:27:15;4.20;;;1.15;;
33268;SDS011;19640;50.944;5.260;2024-03-23T12:29:41;4.53;;;1.48;;
33268;SDS011;19640;50.944;5.260;2024-03-23T12:32:08;5.25;;;2.75;;
33268;SDS011;19640;50.944;5.260;2024-03-23T12:34:34;2.90;;;1.63;;
33268;SDS011;19640;50.944;5.260;2024-03-23T12:37:00;4.95;;;1.42;;
33268;SDS011;19640;50.944;5.260;2024-03-23T12:39:25;5.43;;;1.42;;
33268;SDS011;19640;50.944;5.260;2024-03-23T12:41:52;5.80;;;1.52;;
33268;SDS011;19640;50.944;5.260;2024-03-23T12:44:18;2.70;;;1.27;;
33268;SDS011;19640;50.944;5.260;2024-03-23T12:46:44;1.95;;;1.23;;
33268;SDS011;19640;50.944;5.260;2024-03-23T12:49:10;4.65;;;1.80;;
33268;SDS011;19640;50.944;5.260;2024-03-23T12:51:36;7.63;;;1.73;;
33268;SDS011;19640;50.944;5.260;2024-03-23T12:54:02;3.92;;;1.55;;
33268;SDS011;19640;50.944;5.260;2024-03-23T12:56:28;3.80;;;1.23;;
33268;SDS011;19640;50.944;5.260;2024-03-23T12:58:54;4.72;;;1.15;;
33268;SDS011;19640;50.944;5.260;2024-03-23T13:01:24;2.65;;;0.80;;
33268;SDS011;19640;50.944;5.260;2024-03-23T13:03:50;3.47;;;1.15;;
33268;SDS011;19640;50.944;5.260;2024-03-23T13:06:16;8.10;;;1.20;;
33268;SDS011;19640;50.944;5.260;2024-03-23T13:08:46;5.25;;;1.50;;
33268;SDS011;19640;50.944;5.260;2024-03-23T13:11:12;5.13;;;0.93;;
33268;SDS011;19640;50.944;5.260;2024-03-23T13:13:39;3.15;;;0.90;;
33268;SDS011;19640;50.944;5.260;2024-03-23T13:16:07;3.90;;;1.30;;
33268;SDS011;19640;50.944;5.260;2024-03-23T13:18:33;4.53;;;1.60;;
33268;SDS011;19640;50.944;5.260;2024-03-23T13:20:59;2.95;;;1.30;;
33268;SDS011;19640;50.944;5.260;2024-03-23T13:23:24;6.22;;;1.00;;
33268;SDS011;19640;50.944;5.260;2024-03-23T13:25:54;5.28;;;1.10;;
33268;SDS011;19640;50.944;5.260;2024-03-23T13:28:20;4.43;;;1.10;;
33268;SDS011;19640;50.944;5.260;2024-03-23T13:30:53;3.88;;;0.80;;
33268;SDS011;19640;50.944;5.260;2024-03-23T13:33:20;3.97;;;0.85;;
33268;SDS011;19640;50.944;5.260;2024-03-23T13:35:50;3.55;;;1.27;;
33268;SDS011;19640;50.944;5.260;2024-03-23T13:38:16;2.85;;;0.68;;
33268;SDS011;19640;50.944;5.260;2024-03-23T13:40:57;3.88;;;1.02;;
33268;SDS011;19640;50.944;5.260;2024-03-23T13:43:26;6.07;;;1.52;;
33268;SDS011;19640;50.944;5.260;2024-03-23T13:45:53;1.38;;;0.70;;
33268;SDS011;19640;50.944;5.260;2024-03-23T13:48:23;3.55;;;0.88;;
33268;SDS011;19640;50.944;5.260;2024-03-23T13:51:04;5.78;;;0.60;;
33268;SDS011;19640;50.944;5.260;2024-03-23T13:53:30;2.60;;;0.57;;
33268;SDS011;19640;50.944;5.260;2024-03-23T13:55:59;0.90;;;0.70;;
33268;SDS011;19640;50.944;5.260;2024-03-23T13:58:26;2.28;;;0.90;;
33268;SDS011;19640;50.944;5.260;2024-03-23T14:00:52;2.97;;;0.55;;
33268;SDS011;19640;50.944;5.260;2024-03-23T14:03:18;1.90;;;0.68;;
33268;SDS011;19640;50.944;5.260;2024-03-23T14:05:45;2.50;;;0.73;;
33268;SDS011;19640;50.944;5.260;2024-03-23T14:08:12;4.32;;;0.63;;
33268;SDS011;19640;50.944;5.260;2024-03-23T14:10:41;2.17;;;0.38;;
33268;SDS011;19640;50.944;5.260;2024-03-23T14:13:08;2.65;;;0.50;;
33268;SDS011;19640;50.944;5.260;2024-03-23T14:15:33;1.20;;;0.43;;
33268;SDS011;19640;50.944;5.260;2024-03-23T14:18:01;0.93;;;0.40;;
33268;SDS011;19640;50.944;5.260;2024-03-23T14:20:28;0.70;;;0.50;;
33268;SDS011;19640;50.944;5.260;2024-03-23T14:22:53;2.55;;;0.52;;
33268;SDS011;19640;50.944;5.260;2024-03-23T14:25:19;1.05;;;0.68;;
33268;SDS011;19640;50.944;5.260;2024-03-23T14:27:46;3.55;;;0.65;;
33268;SDS011;19640;50.944;5.260;2024-03-23T14:30:12;1.55;;;0.70;;
33268;SDS011;19640;50.944;5.260;2024-03-23T14:32:39;3.70;;;0.90;;
33268;SDS011;19640;50.944;5.260;2024-03-23T14:35:05;3.08;;;0.65;;
33268;SDS011;19640;50.944;5.260;2024-03-23T14:37:38;2.83;;;0.73;;
33268;SDS011;19640;50.944;5.260;2024-03-23T14:40:04;5.07;;;0.77;;
33268;SDS011;19640;50.944;5.260;2024-03-23T14:42:31;1.48;;;0.88;;
33268;SDS011;19640;50.944;5.260;2024-03-23T14:44:57;4.40;;;0.98;;
33268;SDS011;19640;50.944;5.260;2024-03-23T14:47:23;3.20;;;1.00;;
33268;SDS011;19640;50.944;5.260;2024-03-23T14:49:49;6.90;;;1.50;;
33268;SDS011;19640;50.944;5.260;2024-03-23T14:52:16;5.28;;;1.42;;
33268;SDS011;19640;50.944;5.260;2024-03-23T14:54:43;2.33;;;1.10;;
33268;SDS011;19640;50.944;5.260;2024-03-23T14:57:09;3.10;;;1.20;;
33268;SDS011;19640;50.944;5.260;2024-03-23T14:59:35;3.15;;;1.00;;
33268;SDS011;19640;50.944;5.260;2024-03-23T15:02:03;5.10;;;1.30;;
33268;SDS011;19640;50.944;5.260;2024-03-23T15:04:29;5.00;;;0.80;;
33268;SDS011;19640;50.944;5.260;2024-03-23T15:06:55;2.95;;;1.13;;
33268;SDS011;19640;50.944;5.260;2024-03-23T15:09:20;1.95;;;0.70;;
33268;SDS011;19640;50.944;5.260;2024-03-23T15:11:46;3.88;;;0.90;;
33268;SDS011;19640;50.944;5.260;2024-03-23T15:14:12;4.15;;;0.60;;
33268;SDS011;19640;50.944;5.260;2024-03-23T15:16:37;3.13;;;0.60;;
33268;SDS011;19640;50.944;5.260;2024-03-23T15:19:03;5.13;;;0.73;;
33268;SDS011;19640;50.944;5.260;2024-03-23T15:21:31;4.18;;;0.70;;
33268;SDS011;19640;50.944;5.260;2024-03-23T15:23:57;4.10;;;0.70;;
33268;SDS011;19640;50.944;5.260;2024-03-23T15:26:23;3.33;;;0.60;;
33268;SDS011;19640;50.944;5.260;2024-03-23T15:28:49;1.38;;;0.47;;
33268;SDS011;19640;50.944;5.260;2024-03-23T15:31:24;2.25;;;0.60;;
33268;SDS011;19640;50.944;5.260;2024-03-23T15:33:49;3.33;;;0.75;;
33268;SDS011;19640;50.944;5.260;2024-03-23T15:36:16;3.38;;;0.85;;
33268;SDS011;19640;50.944;5.260;2024-03-23T15:38:42;2.20;;;0.45;;
33268;SDS011;19640;50.944;5.260;2024-03-23T15:41:08;2.83;;;0.85;;
33268;SDS011;19640;50.944;5.260;2024-03-23T15:43:35;4.45;;;0.80;;
33268;SDS011;19640;50.944;5.260;2024-03-23T15:46:01;1.23;;;0.60;;
33268;SDS011;19640;50.944;5.260;2024-03-23T15:48:28;5.03;;;1.85;;
33268;SDS011;19640;50.944;5.260;2024-03-23T15:50:58;2.70;;;0.70;;
33268;SDS011;19640;50.944;5.260;2024-03-23T15:53:29;2.50;;;0.70;;
33268;SDS011;19640;50.944;5.260;2024-03-23T15:58:23;2.40;;;0.90;;